sensor_id;sensor_type;location;lat;lon;timestamp;pressure;altitude;pressure_sealevel;temperature;humidity
54022;BME280;39936;51.058;17.220;2024-03-17T00:00:03;102146.53;;;5.07;86.79
54022;BME280;39936;51.058;17.220;2024-03-17T00:03:31;102151.96;;;5.09;86.21
54022;BME280;39936;51.058;17.220;2024-03-17T00:06:56;102156.47;;;5.09;85.27
54022;BME280;39936;51.058;17.220;2024-03-17T00:10:21;102165.07;;;5.07;85.37
54022;BME280;39936;51.058;17.220;2024-03-17T00:13:47;102124.95;;;4.77;85.56
54022;BME280;39936;51.058;17.220;2024-03-17T00:17:12;102169.74;;;4.93;86.15
54022;BME280;39936;51.058;17.220;2024-03-17T00:20:38;102131.98;;;4.62;86.68
54022;BME280;39936;51.058;17.220;2024-03-17T00:24:12;102164.60;;;4.80;86.69
54022;BME280;39936;51.058;17.220;2024-03-17T00:27:42;102173.34;;;4.77;86.82
54022;BME280;39936;51.058;17.220;2024-03-17T00:31:15;102174.82;;;4.71;87.20
54022;BME280;39936;51.058;17.220;2024-03-17T00:34:45;102170.99;;;4.63;87.65
54022;BME280;39936;51.058;17.220;2024-03-17T00:38:15;102182.42;;;4.63;88.09
54022;BME280;39936;51.058;17.220;2024-03-17T00:41:45;102181.21;;;4.56;88.76
54022;BME280;39936;51.058;17.220;2024-03-17T00:45:12;102180.83;;;4.53;89.37
54022;BME280;39936;51.058;17.220;2024-03-17T00:48:38;102180.90;;;4.49;89.81
54022;BME280;39936;51.058;17.220;2024-03-17T00:52:12;102179.27;;;4.41;90.59
54022;BME280;39936;51.058;17.220;2024-03-17T00:55:38;102180.27;;;4.37;91.43
54022;BME280;39936;51.058;17.220;2024-03-17T00:59:04;102142.59;;;4.08;91.95
54022;BME280;39936;51.058;17.220;2024-03-17T01:02:30;102182.96;;;4.26;92.88
54022;BME280;39936;51.058;17.220;2024-03-17T01:06:06;102183.77;;;4.23;93.32
54022;BME280;39936;51.058;17.220;2024-03-17T01:09:39;102157.59;;;4.01;93.73
54022;BME280;39936;51.058;17.220;2024-03-17T01:13:09;102187.84;;;4.14;94.31
54022;BME280;39936;51.058;17.220;2024-03-17T01:16:38;102185.08;;;4.11;94.66
54022;BME280;39936;51.058;17.220;2024-03-17T01:20:02;102186.13;;;4.14;94.80
54022;BME280;39936;51.058;17.220;2024-03-17T01:23:32;102187.23;;;4.13;94.71
54022;BME280;39936;51.058;17.220;2024-03-17T01:27:01;102188.46;;;4.13;94.60
54022;BME280;39936;51.058;17.220;2024-03-17T01:30:32;102194.28;;;4.09;94.62
54022;BME280;39936;51.058;17.220;2024-03-17T01:33:58;102192.41;;;4.04;94.73
54022;BME280;39936;51.058;17.220;2024-03-17T01:37:24;102189.23;;;3.93;94.96
54022;BME280;39936;51.058;17.220;2024-03-17T01:40:49;102193.08;;;3.94;95.24
54022;BME280;39936;51.058;17.220;2024-03-17T01:44:28;102196.61;;;3.97;95.30
54022;BME280;39936;51.058;17.220;2024-03-17T01:48:03;102196.52;;;3.96;95.11
54022;BME280;39936;51.058;17.220;2024-03-17T01:51:33;102202.83;;;3.92;95.04
54022;BME280;39936;51.058;17.220;2024-03-17T01:55:02;102196.63;;;3.86;95.23
54022;BME280;39936;51.058;17.220;2024-03-17T01:58:30;102197.93;;;3.83;95.41
54022;BME280;39936;51.058;17.220;2024-03-17T02:01:56;102199.95;;;3.79;95.69
54022;BME280;39936;51.058;17.220;2024-03-17T02:05:14;102174.21;;;3.55;96.05
54022;BME280;39936;51.058;17.220;2024-03-17T02:08:51;102210.52;;;3.70;96.63
54022;BME280;39936;51.058;17.220;2024-03-17T02:12:19;102212.76;;;3.66;97.10
54022;BME280;39936;51.058;17.220;2024-03-17T02:15:44;102217.41;;;3.62;97.46
54022;BME280;39936;51.058;17.220;2024-03-17T02:19:08;102216.63;;;3.56;97.61
54022;BME280;39936;51.058;17.220;2024-03-17T02:22:29;102217.53;;;3.54;97.65
54022;BME280;39936;51.058;17.220;2024-03-17T02:25:50;102190.28;;;3.37;97.44
54022;BME280;39936;51.058;17.220;2024-03-17T02:29:24;102205.69;;;3.41;97.65
54022;BME280;39936;51.058;17.220;2024-03-17T02:32:53;102207.73;;;3.35;97.78
54022;BME280;39936;51.058;17.220;2024-03-17T02:36:27;102218.59;;;3.37;97.73
54022;BME280;39936;51.058;17.220;2024-03-17T02:40:00;102218.01;;;3.28;97.75
54022;BME280;39936;51.058;17.220;2024-03-17T02:43:37;102222.77;;;3.30;96.52
54022;BME280;39936;51.058;17.220;2024-03-17T02:47:03;102224.99;;;3.27;95.19
54022;BME280;39936;51.058;17.220;2024-03-17T02:50:29;102233.93;;;3.28;92.47
54022;BME280;39936;51.058;17.220;2024-03-17T02:53:58;102228.38;;;3.31;89.29
54022;BME280;39936;51.058;17.220;2024-03-17T02:57:26;102237.20;;;3.30;88.75
54022;BME280;39936;51.058;17.220;2024-03-17T03:01:05;102234.01;;;3.21;89.11
54022;BME280;39936;51.058;17.220;2024-03-17T03:04:27;102247.50;;;3.15;90.13
54022;BME280;39936;51.058;17.220;2024-03-17T03:14:40;102249.01;;;3.09;93.13
54022;BME280;39936;51.058;17.220;2024-03-17T03:18:20;102256.09;;;3.04;94.52
54022;BME280;39936;51.058;17.220;2024-03-17T03:21:50;102253.20;;;3.00;95.30
54022;BME280;39936;51.058;17.220;2024-03-17T03:25:15;102251.16;;;2.95;95.70
54022;BME280;39936;51.058;17.220;2024-03-17T03:28:44;102244.29;;;2.83;96.27
54022;BME280;39936;51.058;17.220;2024-03-17T03:32:05;102255.16;;;2.86;96.91
54022;BME280;39936;51.058;17.220;2024-03-17T03:35:29;102255.14;;;2.80;97.39
54022;BME280;39936;51.058;17.220;2024-03-17T03:38:55;102251.31;;;2.73;98.30
54022;BME280;39936;51.058;17.220;2024-03-17T03:42:25;102225.84;;;2.52;98.95
54022;BME280;39936;51.058;17.220;2024-03-17T03:45:52;102249.32;;;2.67;99.43
54022;BME280;39936;51.058;17.220;2024-03-17T03:49:21;102253.98;;;2.65;99.48
54022;BME280;39936;51.058;17.220;2024-03-17T03:52:45;102250.79;;;2.63;99.42
54022;BME280;39936;51.058;17.220;2024-03-17T03:56:14;102248.57;;;2.60;99.90
54022;BME280;39936;51.058;17.220;2024-03-17T03:59:39;102245.88;;;2.54;100.00
54022;BME280;39936;51.058;17.220;2024-03-17T04:03:07;102250.57;;;2.50;100.00
54022;BME280;39936;51.058;17.220;2024-03-17T04:06:31;102249.67;;;2.48;100.00
54022;BME280;39936;51.058;17.220;2024-03-17T04:10:01;102251.45;;;2.48;100.00
54022;BME280;39936;51.058;17.220;2024-03-17T04:13:30;102250.16;;;2.46;100.00
54022;BME280;39936;51.058;17.220;2024-03-17T04:16:59;102257.84;;;2.44;100.00
54022;BME280;39936;51.058;17.220;2024-03-17T04:20:20;102256.43;;;2.42;100.00
54022;BME280;39936;51.058;17.220;2024-03-17T04:23:45;102254.62;;;2.37;100.00
54022;BME280;39936;51.058;17.220;2024-03-17T04:27:07;102251.55;;;2.29;100.00
54022;BME280;39936;51.058;17.220;2024-03-17T04:30:31;102256.73;;;2.22;100.00
54022;BME280;39936;51.058;17.220;2024-03-17T04:34:02;102263.98;;;2.22;100.00
54022;BME280;39936;51.058;17.220;2024-03-17T04:37:36;102272.21;;;2.19;100.00
54022;BME280;39936;51.058;17.220;2024-03-17T04:40:57;102271.18;;;2.16;100.00
54022;BME280;39936;51.058;17.220;2024-03-17T04:44:45;102268.63;;;2.14;100.00
54022;BME280;39936;51.058;17.220;2024-03-17T04:48:11;102268.18;;;2.12;100.00
54022;BME280;39936;51.058;17.220;2024-03-17T04:51:02;102263.32;;;2.03;100.00
54022;BME280;39936;51.058;17.220;2024-03-17T04:54:23;102276.05;;;2.08;100.00
54022;BME280;39936;51.058;17.220;2024-03-17T04:57:49;102280.81;;;2.07;100.00
54022;BME280;39936;51.058;17.220;2024-03-17T05:01:14;102238.82;;;1.80;100.00
54022;BME280;39936;51.058;17.220;2024-03-17T05:04:35;102273.47;;;2.03;100.00
54022;BME280;39936;51.058;17.220;2024-03-17T05:08:04;102240.12;;;1.78;100.00
54022;BME280;39936;51.058;17.220;2024-03-17T05:11:27;102286.63;;;2.01;100.00
54022;BME280;39936;51.058;17.220;2024-03-17T05:14:51;102288.67;;;1.99;100.00
54022;BME280;39936;51.058;17.220;2024-03-17T05:18:14;102271.00;;;1.88;100.00
54022;BME280;39936;51.058;17.220;2024-03-17T05:21:44;102296.88;;;2.02;100.00
54022;BME280;39936;51.058;17.220;2024-03-17T05:25:06;102300.95;;;2.05;100.00
54022;BME280;39936;51.058;17.220;2024-03-17T05:28:35;102297.15;;;2.06;100.00
54022;BME280;39936;51.058;17.220;2024-03-17T05:32:02;102299.60;;;2.06;100.00
54022;BME280;39936;51.058;17.220;2024-03-17T05:35:25;102302.92;;;2.08;100.00
54022;BME280;39936;51.058;17.220;2024-03-17T05:38:47;102302.88;;;2.08;100.00
54022;BME280;39936;51.058;17.220;2024-03-17T05:42:12;102302.34;;;2.10;100.00
54022;BME280;39936;51.058;17.220;2024-03-17T05:45:33;102282.67;;;1.98;100.00
54022;BME280;39936;51.058;17.220;2024-03-17T05:48:59;102311.13;;;2.19;100.00
54022;BME280;39936;51.058;17.220;2024-03-17T05:52:24;102308.21;;;2.20;100.00
54022;BME280;39936;51.058;17.220;2024-03-17T05:55:46;102309.05;;;2.22;100.00
54022;BME280;39936;51.058;17.220;2024-03-17T05:59:12;102316.83;;;2.32;99.74
54022;BME280;39936;51.058;17.220;2024-03-17T06:02:37;102312.43;;;2.41;98.82
54022;BME280;39936;51.058;17.220;2024-03-17T06:06:01;102312.20;;;2.49;96.76
54022;BME280;39936;51.058;17.220;2024-03-17T06:09:27;102302.59;;;2.49;95.89
54022;BME280;39936;51.058;17.220;2024-03-17T06:12:53;102266.56;;;2.41;95.65
54022;BME280;39936;51.058;17.220;2024-03-17T06:16:13;102307.45;;;2.70;92.70
54022;BME280;39936;51.058;17.220;2024-03-17T06:19:35;102298.08;;;2.71;92.36
54022;BME280;39936;51.058;17.220;2024-03-17T06:22:55;102316.23;;;2.83;90.89
54022;BME280;39936;51.058;17.220;2024-03-17T06:26:20;102323.48;;;2.95;91.68
54022;BME280;39936;51.058;17.220;2024-03-17T06:29:46;102318.94;;;2.97;89.49
54022;BME280;39936;51.058;17.220;2024-03-17T06:33:12;102311.98;;;3.05;88.90
54022;BME280;39936;51.058;17.220;2024-03-17T06:36:34;102325.51;;;3.15;87.37
54022;BME280;39936;51.058;17.220;2024-03-17T06:39:59;102324.71;;;3.10;85.35
54022;BME280;39936;51.058;17.220;2024-03-17T06:43:25;102311.57;;;3.10;85.22
54022;BME280;39936;51.058;17.220;2024-03-17T06:46:54;102345.09;;;3.28;84.29
54022;BME280;39936;51.058;17.220;2024-03-17T06:50:19;102354.13;;;3.38;84.34
54022;BME280;39936;51.058;17.220;2024-03-17T06:53:46;102362.28;;;3.47;82.90
54022;BME280;39936;51.058;17.220;2024-03-17T06:57:14;102363.29;;;3.54;82.11
54022;BME280;39936;51.058;17.220;2024-03-17T07:00:56;102359.95;;;3.64;82.05
54022;BME280;39936;51.058;17.220;2024-03-17T07:04:19;102360.77;;;3.67;81.01
54022;BME280;39936;51.058;17.220;2024-03-17T07:11:15;102355.92;;;3.86;81.41
54022;BME280;39936;51.058;17.220;2024-03-17T07:14:49;102352.93;;;3.93;80.45
54022;BME280;39936;51.058;17.220;2024-03-17T07:18:25;102348.72;;;3.91;79.81
54022;BME280;39936;51.058;17.220;2024-03-17T07:21:57;102351.23;;;3.93;81.49
54022;BME280;39936;51.058;17.220;2024-03-17T07:25:23;102354.61;;;3.96;79.08
54022;BME280;39936;51.058;17.220;2024-03-17T07:28:51;102356.41;;;4.07;78.10
54022;BME280;39936;51.058;17.220;2024-03-17T07:32:17;102349.44;;;4.15;77.34
54022;BME280;39936;51.058;17.220;2024-03-17T07:35:54;102357.86;;;4.09;75.40
54022;BME280;39936;51.058;17.220;2024-03-17T07:39:23;102345.52;;;3.94;77.12
54022;BME280;39936;51.058;17.220;2024-03-17T07:42:58;102371.71;;;4.14;76.65
54022;BME280;39936;51.058;17.220;2024-03-17T07:46:33;102363.98;;;4.12;75.94
54022;BME280;39936;51.058;17.220;2024-03-17T07:50:00;102363.48;;;4.17;75.57
54022;BME280;39936;51.058;17.220;2024-03-17T07:53:37;102366.09;;;4.32;75.81
54022;BME280;39936;51.058;17.220;2024-03-17T07:57:07;102365.73;;;4.36;74.62
54022;BME280;39936;51.058;17.220;2024-03-17T08:00:36;102374.75;;;4.22;75.03
54022;BME280;39936;51.058;17.220;2024-03-17T08:04:07;102360.86;;;4.27;75.85
54022;BME280;39936;51.058;17.220;2024-03-17T08:07:45;102359.70;;;4.39;76.50
54022;BME280;39936;51.058;17.220;2024-03-17T08:11:13;102362.32;;;4.44;76.78
54022;BME280;39936;51.058;17.220;2024-03-17T08:14:34;102356.43;;;4.49;76.23
54022;BME280;39936;51.058;17.220;2024-03-17T08:17:56;102359.80;;;4.53;77.52
54022;BME280;39936;51.058;17.220;2024-03-17T08:21:23;102317.96;;;4.32;76.74
54022;BME280;39936;51.058;17.220;2024-03-17T08:24:47;102349.60;;;4.48;73.28
54022;BME280;39936;51.058;17.220;2024-03-17T08:28:16;102356.09;;;4.62;73.32
54022;BME280;39936;51.058;17.220;2024-03-17T08:31:45;102362.46;;;4.64;74.55
54022;BME280;39936;51.058;17.220;2024-03-17T08:35:16;102353.34;;;4.56;72.47
54022;BME280;39936;51.058;17.220;2024-03-17T08:38:44;102355.57;;;4.55;73.28
54022;BME280;39936;51.058;17.220;2024-03-17T08:42:16;102359.13;;;4.56;71.90
54022;BME280;39936;51.058;17.220;2024-03-17T08:45:41;102362.55;;;4.67;70.85
54022;BME280;39936;51.058;17.220;2024-03-17T08:49:12;102364.13;;;4.88;70.87
54022;BME280;39936;51.058;17.220;2024-03-17T08:52:45;102353.42;;;5.02;69.39
54022;BME280;39936;51.058;17.220;2024-03-17T08:56:08;102361.95;;;5.07;72.49
54022;BME280;39936;51.058;17.220;2024-03-17T08:59:37;102340.91;;;4.93;71.22
54022;BME280;39936;51.058;17.220;2024-03-17T09:03:05;102340.80;;;4.86;72.11
54022;BME280;39936;51.058;17.220;2024-03-17T09:06:36;102365.23;;;4.74;72.15
54022;BME280;39936;51.058;17.220;2024-03-17T09:10:10;102366.63;;;4.49;72.65
54022;BME280;39936;51.058;17.220;2024-03-17T09:13:37;102358.89;;;4.50;74.28
54022;BME280;39936;51.058;17.220;2024-03-17T09:17:06;102363.59;;;4.78;73.73
54022;BME280;39936;51.058;17.220;2024-03-17T09:20:38;102358.17;;;5.12;71.19
54022;BME280;39936;51.058;17.220;2024-03-17T09:24:12;102359.85;;;5.21;69.11
54022;BME280;39936;51.058;17.220;2024-03-17T09:27:41;102355.05;;;5.34;68.93
54022;BME280;39936;51.058;17.220;2024-03-17T09:31:05;102322.77;;;5.37;66.28
54022;BME280;39936;51.058;17.220;2024-03-17T09:34:27;102352.52;;;5.74;64.90
54022;BME280;39936;51.058;17.220;2024-03-17T09:37:54;102355.73;;;5.52;63.92
54022;BME280;39936;51.058;17.220;2024-03-17T09:41:21;102355.89;;;5.40;65.84
54022;BME280;39936;51.058;17.220;2024-03-17T09:44:53;102369.23;;;5.57;66.84
54022;BME280;39936;51.058;17.220;2024-03-17T09:48:20;102347.69;;;5.84;65.54
54022;BME280;39936;51.058;17.220;2024-03-17T09:51:53;102346.23;;;6.10;65.46
54022;BME280;39936;51.058;17.220;2024-03-17T09:55:17;102309.80;;;5.82;63.20
54022;BME280;39936;51.058;17.220;2024-03-17T09:58:41;102334.21;;;5.97;63.85
54022;BME280;39936;51.058;17.220;2024-03-17T10:02:04;102354.50;;;6.27;63.45
54022;BME280;39936;51.058;17.220;2024-03-17T10:05:30;102313.39;;;5.89;63.23
54022;BME280;39936;51.058;17.220;2024-03-17T10:08:58;102350.08;;;5.93;64.37
54022;BME280;39936;51.058;17.220;2024-03-17T10:12:34;102343.48;;;5.95;62.28
54022;BME280;39936;51.058;17.220;2024-03-17T10:16:00;102326.44;;;6.02;63.11
54022;BME280;39936;51.058;17.220;2024-03-17T10:19:26;102322.51;;;6.18;62.06
54022;BME280;39936;51.058;17.220;2024-03-17T10:23:03;102313.84;;;6.47;61.00
54022;BME280;39936;51.058;17.220;2024-03-17T10:26:25;102324.04;;;6.57;59.10
54022;BME280;39936;51.058;17.220;2024-03-17T10:29:53;102328.50;;;6.41;61.49
54022;BME280;39936;51.058;17.220;2024-03-17T10:33:24;102343.38;;;6.22;60.61
54022;BME280;39936;51.058;17.220;2024-03-17T10:40:21;102335.11;;;5.89;61.05
54022;BME280;39936;51.058;17.220;2024-03-17T10:43:44;102328.23;;;6.15;60.29
54022;BME280;39936;51.058;17.220;2024-03-17T10:50:53;102315.63;;;6.36;58.76
54022;BME280;39936;51.058;17.220;2024-03-17T10:54:24;102326.91;;;6.67;59.15
54022;BME280;39936;51.058;17.220;2024-03-17T10:57:46;102320.79;;;7.00;57.31
54022;BME280;39936;51.058;17.220;2024-03-17T11:01:12;102317.27;;;6.92;55.86
54022;BME280;39936;51.058;17.220;2024-03-17T11:04:41;102320.60;;;6.84;56.34
54022;BME280;39936;51.058;17.220;2024-03-17T11:08:14;102325.56;;;6.83;58.18
54022;BME280;39936;51.058;17.220;2024-03-17T11:11:36;102308.93;;;6.88;59.23
54022;BME280;39936;51.058;17.220;2024-03-17T11:18:43;102318.69;;;6.67;59.18
54022;BME280;39936;51.058;17.220;2024-03-17T11:25:41;102307.12;;;6.16;61.04
54022;BME280;39936;51.058;17.220;2024-03-17T11:29:02;102310.97;;;6.27;60.72
54022;BME280;39936;51.058;17.220;2024-03-17T11:32:27;102305.76;;;6.43;58.94
54022;BME280;39936;51.058;17.220;2024-03-17T11:43:03;102296.19;;;7.00;59.35
54022;BME280;39936;51.058;17.220;2024-03-17T11:46:30;102292.69;;;7.17;56.99
54022;BME280;39936;51.058;17.220;2024-03-17T11:49:51;102288.45;;;7.23;58.66
54022;BME280;39936;51.058;17.220;2024-03-17T11:53:19;102287.80;;;7.57;57.59
54022;BME280;39936;51.058;17.220;2024-03-17T11:56:50;102275.61;;;7.59;52.56
54022;BME280;39936;51.058;17.220;2024-03-17T12:03:46;102268.55;;;7.56;55.13
54022;BME280;39936;51.058;17.220;2024-03-17T12:07:13;102275.48;;;7.74;54.90
54022;BME280;39936;51.058;17.220;2024-03-17T12:10:31;102271.73;;;7.65;55.40
54022;BME280;39936;51.058;17.220;2024-03-17T12:13:53;102270.57;;;7.58;53.87
54022;BME280;39936;51.058;17.220;2024-03-17T12:17:21;102280.31;;;7.72;53.97
54022;BME280;39936;51.058;17.220;2024-03-17T12:20:40;102269.31;;;7.49;53.46
54022;BME280;39936;51.058;17.220;2024-03-17T12:23:58;102273.55;;;7.25;53.57
54022;BME280;39936;51.058;17.220;2024-03-17T12:27:26;102270.99;;;7.27;51.35
54022;BME280;39936;51.058;17.220;2024-03-17T12:30:59;102256.94;;;6.88;52.41
54022;BME280;39936;51.058;17.220;2024-03-17T12:34:29;102254.43;;;6.88;53.72
54022;BME280;39936;51.058;17.220;2024-03-17T12:37:56;102262.57;;;6.84;54.22
54022;BME280;39936;51.058;17.220;2024-03-17T12:41:26;102263.87;;;6.88;53.48
54022;BME280;39936;51.058;17.220;2024-03-17T12:44:56;102244.60;;;6.96;54.11
54022;BME280;39936;51.058;17.220;2024-03-17T12:48:21;102243.16;;;6.99;55.88
54022;BME280;39936;51.058;17.220;2024-03-17T12:51:43;102250.79;;;7.13;51.94
54022;BME280;39936;51.058;17.220;2024-03-17T12:55:15;102250.03;;;6.91;51.95
54022;BME280;39936;51.058;17.220;2024-03-17T12:58:47;102244.64;;;6.76;51.00
54022;BME280;39936;51.058;17.220;2024-03-17T13:02:15;102247.47;;;6.73;52.48
54022;BME280;39936;51.058;17.220;2024-03-17T13:05:39;102246.66;;;6.80;52.60
54022;BME280;39936;51.058;17.220;2024-03-17T13:09:08;102242.14;;;6.91;54.28
54022;BME280;39936;51.058;17.220;2024-03-17T13:12:36;102237.36;;;6.92;54.08
54022;BME280;39936;51.058;17.220;2024-03-17T13:16:00;102234.91;;;6.93;54.54
54022;BME280;39936;51.058;17.220;2024-03-17T13:19:27;102233.07;;;7.00;54.97
54022;BME280;39936;51.058;17.220;2024-03-17T13:22:56;102190.78;;;6.97;54.15
54022;BME280;39936;51.058;17.220;2024-03-17T13:26:22;102208.23;;;7.37;52.53
54022;BME280;39936;51.058;17.220;2024-03-17T13:29:49;102223.40;;;7.38;54.05
54022;BME280;39936;51.058;17.220;2024-03-17T13:33:04;102216.06;;;7.54;53.62
54022;BME280;39936;51.058;17.220;2024-03-17T13:36:40;102211.80;;;7.75;50.92
54022;BME280;39936;51.058;17.220;2024-03-17T13:40:04;102218.04;;;7.89;52.80
54022;BME280;39936;51.058;17.220;2024-03-17T13:43:21;102204.01;;;7.93;54.06
54022;BME280;39936;51.058;17.220;2024-03-17T13:46:49;102211.20;;;7.90;53.36
54022;BME280;39936;51.058;17.220;2024-03-17T13:50:12;102187.05;;;7.46;52.24
54022;BME280;39936;51.058;17.220;2024-03-17T13:53:42;102217.37;;;7.37;53.86
54022;BME280;39936;51.058;17.220;2024-03-17T13:57:12;102213.33;;;7.42;52.60
54022;BME280;39936;51.058;17.220;2024-03-17T14:00:35;102215.44;;;7.46;52.16
54022;BME280;39936;51.058;17.220;2024-03-17T14:04:01;102212.96;;;7.40;51.98
54022;BME280;39936;51.058;17.220;2024-03-17T14:07:29;102196.09;;;7.26;51.81
54022;BME280;39936;51.058;17.220;2024-03-17T14:11:00;102212.92;;;7.35;50.89
54022;BME280;39936;51.058;17.220;2024-03-17T14:14:28;102211.79;;;7.47;51.89
54022;BME280;39936;51.058;17.220;2024-03-17T14:17:54;102211.69;;;7.66;51.83
54022;BME280;39936;51.058;17.220;2024-03-17T14:21:20;102207.45;;;7.59;53.43
54022;BME280;39936;51.058;17.220;2024-03-17T14:24:51;102219.44;;;7.53;52.38
54022;BME280;39936;51.058;17.220;2024-03-17T14:28:13;102215.30;;;7.47;51.38
54022;BME280;39936;51.058;17.220;2024-03-17T14:31:40;102217.69;;;7.52;53.16
54022;BME280;39936;51.058;17.220;2024-03-17T14:35:05;102215.03;;;7.48;50.81
54022;BME280;39936;51.058;17.220;2024-03-17T14:38:36;102217.78;;;7.40;51.40
54022;BME280;39936;51.058;17.220;2024-03-17T14:42:04;102224.27;;;7.24;52.29
54022;BME280;39936;51.058;17.220;2024-03-17T14:45:31;102225.54;;;7.12;53.51
54022;BME280;39936;51.058;17.220;2024-03-17T14:49:00;102215.25;;;6.99;52.86
54022;BME280;39936;51.058;17.220;2024-03-17T14:52:23;102215.09;;;7.03;54.84
54022;BME280;39936;51.058;17.220;2024-03-17T14:55:48;102225.94;;;7.02;52.55
54022;BME280;39936;51.058;17.220;2024-03-17T14:59:19;102225.48;;;6.84;52.99
54022;BME280;39936;51.058;17.220;2024-03-17T15:02:46;102227.88;;;6.61;54.19
54022;BME280;39936;51.058;17.220;2024-03-17T15:06:14;102234.90;;;6.50;54.03
54022;BME280;39936;51.058;17.220;2024-03-17T15:09:42;102228.81;;;6.46;53.32
54022;BME280;39936;51.058;17.220;2024-03-17T15:13:05;102228.91;;;6.50;53.32
54022;BME280;39936;51.058;17.220;2024-03-17T15:16:32;102231.02;;;6.57;52.33
54022;BME280;39936;51.058;17.220;2024-03-17T15:19:58;102231.01;;;6.62;53.05
54022;BME280;39936;51.058;17.220;2024-03-17T15:23:17;102228.28;;;6.64;53.36
54022;BME280;39936;51.058;17.220;2024-03-17T15:26:40;102221.98;;;6.61;52.53
54022;BME280;39936;51.058;17.220;2024-03-17T15:30:12;102226.95;;;6.53;52.91
54022;BME280;39936;51.058;17.220;2024-03-17T15:33:41;102189.37;;;6.31;53.44
54022;BME280;39936;51.058;17.220;2024-03-17T15:37:10;102219.84;;;6.50;53.37
54022;BME280;39936;51.058;17.220;2024-03-17T15:40:31;102201.50;;;6.41;53.52
54022;BME280;39936;51.058;17.220;2024-03-17T15:43:59;102221.29;;;6.52;54.09
54022;BME280;39936;51.058;17.220;2024-03-17T15:47:27;102225.38;;;6.49;53.41
54022;BME280;39936;51.058;17.220;2024-03-17T15:50:55;102199.72;;;6.37;53.74
54022;BME280;39936;51.058;17.220;2024-03-17T15:54:18;102224.81;;;6.46;53.74
54022;BME280;39936;51.058;17.220;2024-03-17T15:57:45;102235.94;;;6.45;54.16
54022;BME280;39936;51.058;17.220;2024-03-17T16:01:15;102236.97;;;6.45;54.49
54022;BME280;39936;51.058;17.220;2024-03-17T16:04:37;102232.32;;;6.35;54.24
54022;BME280;39936;51.058;17.220;2024-03-17T16:08:02;102236.34;;;6.30;55.91
54022;BME280;39936;51.058;17.220;2024-03-17T16:11:30;102236.29;;;6.17;54.70
54022;BME280;39936;51.058;17.220;2024-03-17T16:14:53;102234.17;;;6.08;56.01
54022;BME280;39936;51.058;17.220;2024-03-17T16:18:26;102238.88;;;6.04;57.40
54022;BME280;39936;51.058;17.220;2024-03-17T16:21:52;102236.90;;;5.91;58.57
54022;BME280;39936;51.058;17.220;2024-03-17T16:25:11;102246.32;;;5.93;59.74
54022;BME280;39936;51.058;17.220;2024-03-17T16:28:34;102247.55;;;5.88;60.30
54022;BME280;39936;51.058;17.220;2024-03-17T16:31:54;102248.16;;;5.83;60.63
54022;BME280;39936;51.058;17.220;2024-03-17T16:35:20;102252.50;;;5.75;60.45
54022;BME280;39936;51.058;17.220;2024-03-17T16:38:49;102255.82;;;5.66;60.80
54022;BME280;39936;51.058;17.220;2024-03-17T16:42:10;102260.73;;;5.58;60.94
54022;BME280;39936;51.058;17.220;2024-03-17T16:45:41;102260.39;;;5.51;61.58
54022;BME280;39936;51.058;17.220;2024-03-17T16:49:07;102264.47;;;5.47;62.76
54022;BME280;39936;51.058;17.220;2024-03-17T16:52:36;102261.50;;;5.38;62.70
54022;BME280;39936;51.058;17.220;2024-03-17T16:55:59;102257.02;;;5.28;62.91
54022;BME280;39936;51.058;17.220;2024-03-17T16:59:20;102267.20;;;5.29;63.22
54022;BME280;39936;51.058;17.220;2024-03-17T17:02:46;102239.37;;;5.06;64.24
54022;BME280;39936;51.058;17.220;2024-03-17T17:06:13;102270.28;;;5.16;64.91
54022;BME280;39936;51.058;17.220;2024-03-17T17:09:36;102282.14;;;5.04;65.68
54022;BME280;39936;51.058;17.220;2024-03-17T17:12:56;102274.94;;;4.94;66.47
54022;BME280;39936;51.058;17.220;2024-03-17T17:16:14;102285.33;;;4.86;66.38
54022;BME280;39936;51.058;17.220;2024-03-17T17:19:38;102263.48;;;4.58;66.78
54022;BME280;39936;51.058;17.220;2024-03-17T17:22:56;102291.31;;;4.68;67.13
54022;BME280;39936;51.058;17.220;2024-03-17T17:26:23;102290.23;;;4.61;67.54
54022;BME280;39936;51.058;17.220;2024-03-17T17:29:46;102290.05;;;4.57;67.76
54022;BME280;39936;51.058;17.220;2024-03-17T17:33:09;102296.83;;;4.51;68.32
54022;BME280;39936;51.058;17.220;2024-03-17T17:36:29;102298.90;;;4.48;68.23
54022;BME280;39936;51.058;17.220;2024-03-17T17:39:46;102298.23;;;4.46;68.81
54022;BME280;39936;51.058;17.220;2024-03-17T17:43:10;102296.45;;;4.42;68.54
54022;BME280;39936;51.058;17.220;2024-03-17T17:46:28;102297.48;;;4.38;68.38
54022;BME280;39936;51.058;17.220;2024-03-17T17:49:51;102298.94;;;4.33;67.42
54022;BME280;39936;51.058;17.220;2024-03-17T17:53:19;102298.47;;;4.33;67.90
54022;BME280;39936;51.058;17.220;2024-03-17T17:56:43;102298.63;;;4.30;67.71
54022;BME280;39936;51.058;17.220;2024-03-17T18:00:11;102295.02;;;4.24;68.26
54022;BME280;39936;51.058;17.220;2024-03-17T18:03:34;102284.44;;;4.10;67.84
54022;BME280;39936;51.058;17.220;2024-03-17T18:07:01;102293.40;;;4.16;67.65
54022;BME280;39936;51.058;17.220;2024-03-17T18:10:27;102294.55;;;4.17;67.76
54022;BME280;39936;51.058;17.220;2024-03-17T18:13:47;102289.43;;;4.09;66.97
54022;BME280;39936;51.058;17.220;2024-03-17T18:17:08;102293.98;;;4.05;67.72
54022;BME280;39936;51.058;17.220;2024-03-17T18:20:40;102301.96;;;4.07;68.59
54022;BME280;39936;51.058;17.220;2024-03-17T18:24:09;102302.64;;;4.03;68.11
54022;BME280;39936;51.058;17.220;2024-03-17T18:27:34;102303.59;;;3.92;67.85
54022;BME280;39936;51.058;17.220;2024-03-17T18:31:02;102301.66;;;3.88;68.54